Wah Cantt Weather



Wah Cantt's Current Weather

Temprature 12.32o haze

haze

Rain: 0 %

Min Temprature11o
Max Temprature13.89o
Humidity62
Wind Speed2.1 m/h
Sun Rise07:09:24
Sun Set17:33:39
Current Time: 27-Jan-2020 18:28:16
Lat/Lon: 33.79, 72.73




Wah Cantt's Geo Location



Wah Cantt's Weather Forecast

Time Overall Temp Min Temp Max Temp Humidity Wind Speed Rain
27-Jan-2020 (Mon)
20:00:00 overcast clouds 10.570 10.570 12.670 37 2.4 m/h 0 %
23:00:00 overcast clouds 9.010 9.010 10.580 40 0.65 m/h 0 %
28-Jan-2020 (Tue)
02:00:00 overcast clouds 9.570 9.570 10.620 42 1.09 m/h 0 %
05:00:00 overcast clouds 9.280 9.280 9.800 51 1.53 m/h 0 %
08:00:00 overcast clouds 10.210 10.210 10.210 68 1.08 m/h 0 %
11:00:00 overcast clouds 14.440 14.440 14.440 47 0.85 m/h 0 %
14:00:00 broken clouds 16.270 16.270 16.270 38 1.67 m/h 0 %
17:00:00 overcast clouds 13.860 13.860 13.860 57 4.06 m/h 0 %
20:00:00 overcast clouds 11.840 11.840 11.840 69 1.88 m/h 0 %
23:00:00 overcast clouds 11.160 11.160 11.160 72 1.8 m/h 0 %
29-Jan-2020 (Wed)
02:00:00 light rain 10.450 10.450 10.450 76 0.74 m/h 13 %
05:00:00 overcast clouds 9.380 9.380 9.380 81 0.77 m/h 0 %
08:00:00 overcast clouds 10.400 10.400 10.400 77 0.37 m/h 0 %
11:00:00 light rain 11.940 11.940 11.940 72 2.49 m/h 38 %
14:00:00 light rain 10.750 10.750 10.750 78 1.61 m/h 138 %
17:00:00 light rain 11.150 11.150 11.150 79 0.74 m/h 31 %
20:00:00 few clouds 8.630 8.630 8.630 82 0.82 m/h 0 %
23:00:00 scattered clouds 8.100 8.100 8.100 80 0.76 m/h 0 %
30-Jan-2020 (Thu)
02:00:00 scattered clouds 7.180 7.180 7.180 78 0.69 m/h 0 %
05:00:00 few clouds 6.470 6.470 6.470 77 0.41 m/h 0 %
08:00:00 clear sky 7.210 7.210 7.210 74 0.48 m/h 0 %
11:00:00 clear sky 13.220 13.220 13.220 50 1.4 m/h 0 %
14:00:00 broken clouds 16.310 16.310 16.310 39 1.86 m/h 0 %
17:00:00 broken clouds 14.520 14.520 14.520 43 1.21 m/h 0 %
20:00:00 scattered clouds 10.700 10.700 10.700 48 0.76 m/h 0 %
23:00:00 broken clouds 9.640 9.640 9.640 58 1.21 m/h 0 %
31-Jan-2020 (Fri)
02:00:00 overcast clouds 9.300 9.300 9.300 61 0.47 m/h 0 %
05:00:00 overcast clouds 8.320 8.320 8.320 64 0.91 m/h 0 %
08:00:00 overcast clouds 8.730 8.730 8.730 64 0.14 m/h 0 %
11:00:00 overcast clouds 13.650 13.650 13.650 42 1.36 m/h 0 %
14:00:00 overcast clouds 16.450 16.450 16.450 34 2.02 m/h 0 %
17:00:00 overcast clouds 14.500 14.500 14.500 42 1.09 m/h 0 %
20:00:00 overcast clouds 11.410 11.410 11.410 45 0.69 m/h 0 %
23:00:00 broken clouds 9.530 9.530 9.530 54 1.26 m/h 0 %
01-Feb-2020 (Sat)
02:00:00 clear sky 8.390 8.390 8.390 59 1.08 m/h 0 %
05:00:00 clear sky 7.190 7.190 7.190 61 0.54 m/h 0 %
08:00:00 clear sky 7.760 7.760 7.760 56 0.48 m/h 0 %
11:00:00 clear sky 13.780 13.780 13.780 38 1.61 m/h 0 %
14:00:00 clear sky 17.300 17.300 17.300 30 2.16 m/h 0 %
17:00:00 clear sky 15.270 15.270 15.270 37 1.6 m/h 0 %

Famous Cities (61)